SEC Form 4 · insider buys & sells
Transactions
200
Buy Volume
$15.59M
71 purchases
Sell Volume
$266.57M
129 sales
Net Flow
-$250.99M
net selling
Buy vs Sell $ (shown rows)6% buys
Buys $15.59MSells $266.57M
reset
200 transaction(s)
FiledTradeTicker / Mkt CapB/SCompanyInsiderTitle CodePriceQtyValueOwned After
2026-08-24 2026-08-20 LCUT $218.62M ▼ SELL LIFETIME BRANDS, INC SIEGEL JEFFREY Dir S $9.51 2,571 $24.5K 1,177,897
2026-08-24 2026-08-21 HSY $42.56B ▼ SELL HERSHEY CO HERSHEY TRUST CO TRUSTEE IN TRUST FOR MILTON HERSHEY SCHOOL 10% S $188.29 1,303 $245.3K 956,119
2026-08-24 2026-08-21 HSY $42.56B ▼ SELL HERSHEY CO HERSHEY TRUST CO TRUSTEE IN TRUST FOR MILTON HERSHEY SCHOOL 10% S $187.73 998 $187.4K 957,422
2026-08-24 2026-08-21 HSY $42.56B ▼ SELL HERSHEY CO HERSHEY TRUST CO TRUSTEE IN TRUST FOR MILTON HERSHEY SCHOOL 10% S $186.47 7,180 $1.34M 958,420
2026-08-24 2026-08-21 HSY $42.56B ▼ SELL HERSHEY CO HERSHEY TRUST CO TRUSTEE IN TRUST FOR MILTON HERSHEY SCHOOL 10% S $185.69 519 $96.4K 965,600
2026-08-24 2026-08-20 HSY $42.56B ▼ SELL HERSHEY CO HERSHEY TRUST CO TRUSTEE IN TRUST FOR MILTON HERSHEY SCHOOL 10% S $190.15 573 $109.0K 966,119
2026-08-24 2026-08-20 HSY $42.56B ▼ SELL HERSHEY CO HERSHEY TRUST CO TRUSTEE IN TRUST FOR MILTON HERSHEY SCHOOL 10% S $189.40 4,874 $923.1K 966,692
2026-08-24 2026-08-20 HSY $42.56B ▼ SELL HERSHEY CO HERSHEY TRUST CO TRUSTEE IN TRUST FOR MILTON HERSHEY SCHOOL 10% S $188.50 4,216 $794.7K 971,566
2026-08-24 2026-08-20 HSY $42.56B ▼ SELL HERSHEY CO HERSHEY TRUST CO TRUSTEE IN TRUST FOR MILTON HERSHEY SCHOOL 10% S $187.49 337 $63.2K 975,782
2026-08-24 2026-08-20 PG $334.23B ▼ SELL PROCTER & GAMBLE Co Abd El Hak Hesham CEO-Baby and Feminine Care S $143.79 1,936 $278.4K 11,218
2026-08-24 2026-08-20 LYNX ▼ SELL Lyntris Inc. Trive Capital Holdings LLC 10% J $0.00 11,966,544 $0 0
2026-08-24 2026-08-20 LYNX ▼ SELL Lyntris Inc. Trive Capital Holdings LLC 10% S $17.50 1,474,551 $25.80M 11,966,544
2026-08-24 2026-08-20 LYNX ▼ SELL Lyntris Inc. Trive Capital Holdings LLC 10% J $0.00 22,084,595 $0 0
2026-08-24 2026-08-20 LYNX ▼ SELL Lyntris Inc. Trive Capital Holdings LLC 10% S $17.50 2,721,326 $47.62M 22,084,595
2026-08-24 2026-08-20 LYNX ▼ SELL Lyntris Inc. Trive Capital Holdings LLC 10% J $0.00 33,577,032 $0 0
2026-08-24 2026-08-20 LYNX ▼ SELL Lyntris Inc. Trive Capital Holdings LLC 10% S $17.50 4,137,456 $72.41M 33,577,032
2026-08-24 2026-08-20 PG $334.23B ▼ SELL PROCTER & GAMBLE Co Santos de Azevedo Juliana Monteiro CEO - Grooming S $143.79 2,368 $340.5K 23,601
2026-08-24 2026-08-21 BLX $1.94B ▲ BUY BLADEX, INC. Tizzoni Alejandro Horacio Chief Risk Officer P $53.00 1,850 $98.0K 79,901
2026-08-24 2026-08-22 TMO $232.67B ▼ SELL THERMO FISHER SCIENTIFIC INC. Meyer James Sr. Vice President & CFO F $629.27 31 $19.5K 5,830
2026-08-24 2026-08-20 PG $334.23B ▼ SELL PROCTER & GAMBLE Co Gama Paul CEO- Health Care S $143.79 3,396 $488.3K 40,832
2026-08-24 2026-08-24 FCCO $319.59M ▼ SELL FIRST COMMUNITY CORP /SC/ Deutsch Fred Joseph Dir, Executive Vice President S $34.00 7,936 $269.8K 10,000
2026-08-24 2026-08-21 FCCO $319.59M ▼ SELL FIRST COMMUNITY CORP /SC/ Deutsch Fred Joseph Dir, Executive Vice President S $34.00 963 $32.7K 17,936
2026-08-24 2026-08-22 RAMP $2.28B ▼ SELL LiveRamp Holdings, Inc. Karasick Matthew CHIEF PRODUCT OFFICER F $37.58 560 $21.0K 123,194
2026-08-24 2026-08-22 RAMP $2.28B ▼ SELL LiveRamp Holdings, Inc. Karasick Matthew CHIEF PRODUCT OFFICER F $37.58 763 $28.7K 123,754
2026-08-24 2026-08-22 RAMP $2.28B ▼ SELL LiveRamp Holdings, Inc. Karasick Matthew CHIEF PRODUCT OFFICER F $37.58 1,018 $38.3K 124,517
2026-08-24 2026-08-20 PG $334.23B ▼ SELL PROCTER & GAMBLE Co Bharucha Freddy P. CEO - Beauty S $143.79 246 $35.4K 1,965
2026-08-24 2026-08-21 AIAI $503.83M ▲ BUY AIAI Holdings Corp Carlton Charles Craig 10% P $7.13 7,000 $49.9K 9,213,250
2026-08-24 2026-08-21 AIAI $503.83M ▲ BUY AIAI Holdings Corp Carlton Charles Craig 10% P $6.83 7,250 $49.5K 9,206,250
2026-08-24 2026-08-22 REA ▲ BUY Rare Earths Americas, Inc. Swartz Donald S Dir, CEO and President M $0.00 135,000 $0 419,226
2026-08-24 2026-08-21 CMG $45.24B ▼ SELL CHIPOTLE MEXICAN GRILL INC Bush Matthew R Controller, PAO S $35.75 2,675 $95.6K 21,415
2026-08-24 2026-08-21 SIG ▲ BUY SIGNET JEWELERS LTD Cividino Claudia See Remarks A $0.00 35 $0 17,114
2026-08-24 2026-08-20 DBX ▼ SELL DROPBOX, INC. Schubach Sarah Elizabeth Chief Accounting Officer S $34.01 1,631 $55.5K 116,781
2026-08-24 2026-08-21 SNNF ▲ BUY Seneca Bancorp, Inc. Nastri Jamie SVP - Operations A $0.00 1,000 $0 2,936
2026-08-24 2026-08-21 SNNF ▲ BUY Seneca Bancorp, Inc. Testani Angelo Chief Banking Officer A $0.00 1,000 $0 2,936
2026-08-24 2026-08-24 GLOO ▼ SELL Gloo Holdings, Inc. THRIVENT FINANCIAL FOR LUTHERANS 10% S $3.44 479 $1.6K 4,122,521
2026-08-24 2026-08-21 GLOO ▼ SELL Gloo Holdings, Inc. THRIVENT FINANCIAL FOR LUTHERANS 10% S $3.44 2,000 $6.9K 4,123,000
2026-08-24 2026-08-20 GLOO ▼ SELL Gloo Holdings, Inc. THRIVENT FINANCIAL FOR LUTHERANS 10% S $3.44 6,000 $20.7K 4,125,000
2026-08-24 2026-08-20 IDXX $14.04B ▼ SELL IDEXX LABORATORIES INC /DE Emerson Andrew EVP, CFO and Treasurer F $0.00 86 $0 4,421
2026-08-24 2026-08-20 IDXX $14.04B ▲ BUY IDEXX LABORATORIES INC /DE Emerson Andrew EVP, CFO and Treasurer M $178.26 265 $47.2K 4,507
2026-08-24 2026-08-21 SIG ▲ BUY SIGNET JEWELERS LTD Cho Karen Leslie Chief People Officer A $0.00 31 $0 8,487
2026-08-24 2026-08-20 GEMI ▼ SELL Gemini Space Station, Inc. Stojanovic Danijela Interim CFO S $4.05 7,940 $32.2K 187,923
2026-08-24 2026-08-20 NIQ $5.40B ▼ SELL NIQ Global Intelligence plc Klein-Boelting Ralf Dir F $18.31 1,956 $35.8K 35,272
2026-08-24 2026-08-20 NIQ $5.40B ▼ SELL NIQ Global Intelligence plc Zitting Shaun Ellen Chief Human Resources Officer F $18.31 2,802 $51.3K 129,550
2026-08-24 2026-08-21 VMRK $24.86B ▼ SELL VIVMARK RESIDENTIAL Willson Sean Thomas Senior Vice President & CAO S $66.31 300 $19.9K 17,988
2026-08-24 2026-08-21 MSI $79.05B ▼ SELL Motorola Solutions, Inc. MOORE KATHRYN A SVP, HUMAN RESOURCES S $477.69 166 $79.5K 1,282
2026-08-24 2026-08-21 MSI $79.05B ▼ SELL Motorola Solutions, Inc. MOORE KATHRYN A SVP, HUMAN RESOURCES S $477.29 19 $9.2K 1,449
2026-08-24 2026-08-21 MSI $79.05B ▼ SELL Motorola Solutions, Inc. MOORE KATHRYN A SVP, HUMAN RESOURCES S $476.80 818 $390.0K 1,468
2026-08-24 2026-08-21 MSI $79.05B ▲ BUY Motorola Solutions, Inc. MOORE KATHRYN A SVP, HUMAN RESOURCES M $244.17 349 $85.2K 2,286
2026-08-24 2026-08-21 MSI $79.05B ▲ BUY Motorola Solutions, Inc. MOORE KATHRYN A SVP, HUMAN RESOURCES M $222.30 317 $70.5K 1,937
2026-08-24 2026-08-21 MSI $79.05B ▲ BUY Motorola Solutions, Inc. MOORE KATHRYN A SVP, HUMAN RESOURCES M $216.21 152 $32.9K 1,620
2026-08-24 2026-08-21 LEG $1.09B ▲ BUY LEGGETT & PLATT INC ODAFFER LINDSEY NICOLE EVP - Chief HR Officer A $8.00 92 $734 86,917
2026-08-24 2026-08-20 RHLD $921.46M ▲ BUY Resolute Holdings Management, Inc. Schoen Kurt Chief Financial Officer P $117.84 375 $44.2K 3,225
2026-08-24 2026-08-20 TNET $3.15B ▼ SELL TRINET GROUP, INC. Majalya Sidney A. SVP, CLO and Secretary S $68.53 775 $53.1K 53,212
2026-08-24 2026-08-21 NONE $1.01B ▲ BUY Blackstone Private Real Estate Credit & Income Fund Blackstone Private Multi-Asset Credit & Income Fund 10% P $26.14 23,981 $626.9K 28,763
2026-08-24 2026-08-21 NONE $1.01B ▲ BUY Blackstone Private Real Estate Credit & Income Fund Blackstone Private Multi-Asset Credit & Income Fund 10% P $26.14 248,661 $6.50M 8,704,419
2026-08-24 2026-08-21 SIG ▲ BUY SIGNET JEWELERS LTD Sagi Raghunandan R See Remarks A $0.00 47 $0 11,082
2026-08-24 2026-08-21 SNDK $234.36B ▼ SELL Sandisk Corp Ilkbahar Alper EVP, Chief Technology Officer F $1596.08 320 $510.7K 49,500
2026-08-24 2026-08-20 SNDK $234.36B ▼ SELL Sandisk Corp Ilkbahar Alper EVP, Chief Technology Officer F $1600.62 163 $260.9K 49,820
2026-08-24 2026-08-20 SNDK $234.36B ▼ SELL Sandisk Corp Ilkbahar Alper EVP, Chief Technology Officer F $1600.62 276 $441.8K 49,983
2026-08-24 2026-08-20 SNDK $234.36B ▲ BUY Sandisk Corp Ilkbahar Alper EVP, Chief Technology Officer M $0.00 276 $0 50,259
2026-08-24 2026-08-21 SNDK $234.36B ▼ SELL Sandisk Corp Shek Bernard Chief Legal Officer & Secty F $1596.08 108 $172.4K 30,696
2026-08-24 2026-08-20 SNDK $234.36B ▼ SELL Sandisk Corp Shek Bernard Chief Legal Officer & Secty F $1600.62 111 $177.7K 30,804
2026-08-24 2026-08-21 AII $515.31M ▼ SELL American Integrity Insurance Group, Inc. Ritchie Robert C Dir, Chief Executive Officer, 10% S $26.30 150 $3.9K 2,073,997
2026-08-24 2026-08-21 AII $515.31M ▼ SELL American Integrity Insurance Group, Inc. Ritchie Robert C Dir, Chief Executive Officer, 10% S $25.68 24,464 $628.2K 2,074,147
2026-08-24 2026-08-20 AII $515.31M ▼ SELL American Integrity Insurance Group, Inc. Ritchie Robert C Dir, Chief Executive Officer, 10% S $25.08 35,000 $877.8K 2,098,611
2026-08-24 2026-08-22 RAMP $2.28B ▼ SELL LiveRamp Holdings, Inc. Sharma Vihan CHIEF REVENUE OFFICER F $37.58 1,815 $68.2K 193,001
2026-08-24 2026-08-22 RAMP $2.28B ▼ SELL LiveRamp Holdings, Inc. Sharma Vihan CHIEF REVENUE OFFICER F $37.58 1,602 $60.2K 194,816
2026-08-24 2026-08-21 LEG $1.09B ▲ BUY LEGGETT & PLATT INC DAVIS JENNIFER JOY EVP - GENERAL COUNSEL A $8.00 116 $926 119,593
2026-08-24 2026-08-21 PACS $7.09B ▼ SELL PACS Group, Inc. Murray Jason Hulse Dir, Co-Founder, CEO & Chairman, 10% S $44.25 27,590 $1.22M 54,694,866
2026-08-24 2026-08-21 PACS $7.09B ▼ SELL PACS Group, Inc. Murray Jason Hulse Dir, Co-Founder, CEO & Chairman, 10% S $43.61 31,654 $1.38M 54,722,456
2026-08-24 2026-08-20 PACS $7.09B ▼ SELL PACS Group, Inc. Murray Jason Hulse Dir, Co-Founder, CEO & Chairman, 10% S $44.76 13,879 $621.3K 54,754,110
2026-08-24 2026-08-20 PACS $7.09B ▼ SELL PACS Group, Inc. Murray Jason Hulse Dir, Co-Founder, CEO & Chairman, 10% S $43.77 77,427 $3.39M 54,767,989
2026-08-24 2026-08-21 EAT $10.04B ▼ SELL BRINKER INTERNATIONAL, INC Butler James M SVP Chief Supply Chain Officer S $240.37 10,000 $2.40M 9,064
2026-08-24 2026-08-24 REAX ▲ BUY Real REMAX Group Inc. Jenkins Leah R Chief Accounting Officer A 5,348 15,427
2026-08-24 2026-08-24 REAX ▲ BUY Real REMAX Group Inc. Jenkins Leah R Chief Accounting Officer A 10,079 10,079
2026-08-24 2026-08-20 CZNC $464.33M ▲ BUY CITIZENS & NORTHERN CORP James Glenn Richard EVP COUNSEL, CORP SECRETARY J $25.84 3 $78 335
2026-08-24 2026-08-14 CZNC $464.33M ▲ BUY CITIZENS & NORTHERN CORP James Glenn Richard EVP COUNSEL, CORP SECRETARY J $25.89 8 $207 3,067
2026-08-24 2026-07-23 MMA ▲ BUY MIXED MARTIAL ARTS GROUP LTD Corbett Eric Dir A $0.00 100,000 $0 650,000
2026-08-24 2026-08-21 LEG $1.09B ▲ BUY LEGGETT & PLATT INC KLEIBOEKER RYAN MICHAEL EVP-Chief Strategic Plan. Off. A $8.00 97 $772 111,439
2026-08-24 2026-08-20 ITRI $4.28B ▼ SELL ITRON, INC. Pulatie-Hahn Laurie Ann SVP, HR S $97.83 187 $18.3K 32,108
2026-08-24 2026-08-22 RAMP $2.28B ▼ SELL LiveRamp Holdings, Inc. Dillard Lauren R CHIEF FINANCIAL OFFICER F $37.58 3,187 $119.8K 388,811
2026-08-24 2026-08-22 RAMP $2.28B ▼ SELL LiveRamp Holdings, Inc. Dillard Lauren R CHIEF FINANCIAL OFFICER F $37.58 2,609 $98.0K 391,998
2026-08-24 2026-08-22 RAMP $2.28B ▼ SELL LiveRamp Holdings, Inc. Dillard Lauren R CHIEF FINANCIAL OFFICER F $37.58 2,869 $107.8K 394,607
2026-08-24 2026-08-21 SM $8.81B ▼ SELL SM Energy Co Lebeck James Barker EVP, GC & Corp Secretary S $37.02 17,500 $647.9K 14,705
2026-08-24 2026-08-20 KO ▼ SELL COCA COLA CO Pietracci Bruno President, Latin America OU S $90.93 29,246 $2.66M 0
2026-08-24 2026-08-20 KO ▲ BUY COCA COLA CO Pietracci Bruno President, Latin America OU M $60.27 29,246 $1.76M 29,246
2026-08-24 2026-08-20 KO ▼ SELL COCA COLA CO Pietracci Bruno President, Latin America OU S $90.93 40,754 $3.71M 0
2026-08-24 2026-08-20 KO ▲ BUY COCA COLA CO Pietracci Bruno President, Latin America OU M $60.02 40,754 $2.45M 40,754
2026-08-24 2026-08-20 KO ▼ SELL COCA COLA CO Pietracci Bruno President, Latin America OU S $90.93 41,365 $3.76M 0
2026-08-24 2026-08-20 KO ▲ BUY COCA COLA CO Pietracci Bruno President, Latin America OU M $61.34 41,365 $2.54M 41,365
2026-08-24 2026-08-20 PG $334.23B ▼ SELL PROCTER & GAMBLE Co Purushothaman Balaji Chief Human Resources Officer S $143.79 2,019 $290.3K 15,477
2026-08-24 2026-08-17 APLM ▲ BUY Apollomics Inc. Huang Ya-Chi Dir M $0.00 500 $0 1,500
2026-08-24 2026-08-20 GEO $4.17B ▼ SELL GEO GROUP INC Albence Matthew Senior VP, Client Relations S $31.69 10,000 $316.9K 99,399
2026-08-24 2026-08-21 QXL $102.88M ▲ BUY QUANTUM X LABS INC. Yoresh Eliyahu Dir P $4.77 4,500 $21.5K 7,018
2026-08-24 2026-08-20 PG $334.23B ▼ SELL PROCTER & GAMBLE Co Whaley Susan Street Chief Legal Officer & Secy S $143.79 2,238 $321.8K 26,989
2026-08-24 2026-08-21 TGT $74.28B ▼ SELL TARGET CORP LIEGEL MATTHEW A Chief Accounting Officer S $163.51 926 $151.4K 12,266
2026-08-24 2026-08-20 ITRI $4.28B ▼ SELL ITRON, INC. Ware Christopher E. SVP, GC & Corp. Secretary S $97.83 195 $19.1K 30,116
2026-08-24 2026-08-20 USPH $1.16B ▼ SELL U S PHYSICAL THERAPY INC /NV Binstein Richard EVP Gen'l Counsel & Secretary F $78.00 450 $35.1K 24,417
2026-08-24 2026-08-21 LEG $1.09B ▲ BUY LEGGETT & PLATT INC BURNS BENJAMIN MICHAEL Executive Vice President - CFO A $8.00 141 $1.1K 192,383
2026-08-24 2026-08-21 TLS $331.08M ▼ SELL TELOS CORP Dockery Derrick D. Dir S $4.43 12,000 $53.2K 156,591
2026-08-24 2026-08-24 PG $337.60B ▼ SELL PROCTER & GAMBLE Co Janzaruk Matthew W. SVP - Chief Accounting Officer S $145.24 359 $52.1K 1,271
2026-08-24 2026-08-20 PG $334.23B ▼ SELL PROCTER & GAMBLE Co Janzaruk Matthew W. SVP - Chief Accounting Officer S $143.79 156 $22.4K 1,630
2026-08-24 2026-08-21 NONE ▲ BUY Fundrise Income Real Estate Fund, LLC Monte Mark David Dir P $10.13 61 $623 3,525
2026-08-24 2026-08-21 PG $332.44B ▼ SELL PROCTER & GAMBLE Co Raman Sundar G. CEO-Fabric Home & Habitat Care S $143.02 3,435 $491.3K 47,745
2026-08-24 2026-08-21 LEG $1.09B ▲ BUY LEGGETT & PLATT INC HAGALE JAMES TYSON EVP, Pres. - Bedding Products A $7.53 316 $2.4K 195,473
2026-08-24 2026-08-21 LEG $1.09B ▲ BUY LEGGETT & PLATT INC HAGALE JAMES TYSON EVP, Pres. - Bedding Products A $8.00 141 $1.1K 195,157
2026-08-24 2026-08-24 PRE $361.11M ▲ BUY Prenetics Global Ltd Yeung Danny Sheng Wu Dir, Chief Executive Officer P $21.40 11,181 $239.3K 112,416
2026-08-24 2026-08-24 PRE $361.11M ▲ BUY Prenetics Global Ltd Yeung Danny Sheng Wu Dir, Chief Executive Officer P $20.90 6,000 $125.4K 101,235
2026-08-24 2026-08-20 PRE $361.11M ▲ BUY Prenetics Global Ltd Yeung Danny Sheng Wu Dir, Chief Executive Officer P $18.31 7,500 $137.3K 95,235
2026-08-24 2026-08-20 PRE $361.11M ▼ SELL Prenetics Global Ltd Yeung Danny Sheng Wu Dir, Chief Executive Officer J $0.00 49,912 $0 87,735
2026-08-24 2026-08-20 PRE $361.11M ▲ BUY Prenetics Global Ltd Yeung Danny Sheng Wu Dir, Chief Executive Officer M $0.00 53,953 $5 137,647
2026-08-24 2026-08-20 ADP $111.23B ▼ SELL AUTOMATIC DATA PROCESSING INC Kwon David Corp VP S $280.00 798 $223.4K 13,193
2026-08-24 2026-08-20 ADP $111.23B ▲ BUY AUTOMATIC DATA PROCESSING INC Kwon David Corp VP M $169.84 967 $164.2K 13,991
2026-08-24 2026-08-20 USPH $1.16B ▼ SELL U S PHYSICAL THERAPY INC /NV Williams Eric Joseph President and COO F $78.00 714 $55.7K 39,617
2026-08-24 2026-08-21 BULL ▼ SELL Webull Corp James Benjamin Worthy Dir, General Counsel S $9.02 50,273 $453.3K 1,150,991
2026-08-24 2026-08-20 CZNC $463.44M ▲ BUY CITIZENS & NORTHERN CORP Balagour Alexander EVP- CHIEF INFORMATION OFFICER J $25.84 23 $594 2,181
2026-08-24 2026-08-20 BLND ▼ SELL Blend Labs, Inc. Thomson Matthew Christopher Head of Revenue F $1.50 24,350 $36.5K 135,812
2026-08-24 2026-08-20 BLND ▲ BUY Blend Labs, Inc. Thomson Matthew Christopher Head of Revenue M 100,000 160,162
2026-08-24 2026-08-20 BLND ▼ SELL Blend Labs, Inc. Venkatramani Srinivasan Head of Product Tech & Cust Op F $1.50 29,372 $44.1K 311,268
2026-08-24 2026-08-20 BLND ▲ BUY Blend Labs, Inc. Venkatramani Srinivasan Head of Product Tech & Cust Op M 81,250 340,640
2026-08-24 2026-08-20 BLND ▼ SELL Blend Labs, Inc. Tkach Oxana PRINCIPAL ACCOUNTING OFFICER F $1.50 10,667 $16.0K 123,071
2026-08-24 2026-08-20 BLND ▲ BUY Blend Labs, Inc. Tkach Oxana PRINCIPAL ACCOUNTING OFFICER M 12,500 133,738
2026-08-24 2026-08-20 BLND ▲ BUY Blend Labs, Inc. Tkach Oxana PRINCIPAL ACCOUNTING OFFICER M 25,000 121,238
2026-08-24 2026-08-20 BLND ▼ SELL Blend Labs, Inc. Ling Winnie HEAD OF LEGAL AND PEOPLE F $1.50 25,385 $38.1K 530,107
2026-08-24 2026-08-20 BLND ▲ BUY Blend Labs, Inc. Ling Winnie HEAD OF LEGAL AND PEOPLE M 39,164 555,492
2026-08-24 2026-08-20 BLND ▲ BUY Blend Labs, Inc. Ling Winnie HEAD OF LEGAL AND PEOPLE M 31,250 516,328
2026-08-24 2026-08-20 BLND ▼ SELL Blend Labs, Inc. Ghamsari Nima Dir, HEAD OF BLEND F $1.50 241,701 $362.6K 7,889,101
2026-08-24 2026-08-20 BLND ▲ BUY Blend Labs, Inc. Ghamsari Nima Dir, HEAD OF BLEND M 114,229 8,130,802
2026-08-24 2026-08-20 BLND ▲ BUY Blend Labs, Inc. Ghamsari Nima Dir, HEAD OF BLEND M 125,000 8,016,573
2026-08-24 2026-08-20 BLND ▲ BUY Blend Labs, Inc. Ghamsari Nima Dir, HEAD OF BLEND M 375,000 7,891,573
2026-08-24 2026-08-20 MGPI ▼ SELL MGP INGREDIENTS INC Lux Paul S. 10%, Member of 10% holder group S $17.76 33,000 $586.2K 550,458
2026-08-24 2026-08-21 CLBT $2.80B ▼ SELL Cellebrite DI Ltd. Jewell Marcus Global Chief Revenue Officer S $11.24 12,562 $141.2K 427,128
2026-08-24 2026-08-24 EVCM $1.70B ▼ SELL EverCommerce Inc. Remer Eric Richard Dir S $9.57 13,974 $133.7K 5,404,227
2026-08-24 2026-08-21 EVCM $1.70B ▼ SELL EverCommerce Inc. Remer Eric Richard Dir S $9.63 16,602 $159.9K 5,418,201
2026-08-24 2026-08-22 EVCM $1.70B ▼ SELL EverCommerce Inc. Feierstein Matthew David President F $9.64 6,604 $63.7K 1,990,075
2026-08-24 2026-08-22 EVCM $1.70B ▼ SELL EverCommerce Inc. Storey Lisa E Chief Legal Officer S $9.64 1,228 $11.8K 221,358
2026-08-24 2026-08-24 NXT $12.03B ▼ SELL Nextpower Inc. Blunden Julia Dir S $84.10 3,692 $310.5K 2,742
2026-08-24 2026-08-21 NXT $12.03B ▼ SELL Nextpower Inc. Blunden Julia Dir S $88.08 3,723 $327.9K 6,434
2026-08-24 2026-08-21 GDEV $204.01M ▼ SELL GDEV Inc. Reingold Anton See Remarks F $11.24 3,863 $43.4K 383,518
2026-08-24 2026-08-21 GDEV $204.01M ▲ BUY GDEV Inc. Reingold Anton See Remarks M $0.00 22,072 $0 387,381
2026-08-24 2026-08-20 PG $334.23B ▼ SELL PROCTER & GAMBLE Co Schulten Andre Chief Financial Officer S $143.79 5,402 $776.8K 62,975
2026-08-24 2026-08-20 CZNC $463.44M ▲ BUY CITIZENS & NORTHERN CORP Rush Blair T EXECUTIVE VICE PRESIDENT J $25.84 31 $801 2,966
2026-08-24 2026-08-21 WAB $50.18B ▼ SELL WESTINGHOUSE AIR BRAKE TECHNOLOGIES CORP Mendonca Rogerio President, Equipment Group S $296.24 9 $2.7K 7,968
2026-08-24 2026-08-21 WAB $50.18B ▼ SELL WESTINGHOUSE AIR BRAKE TECHNOLOGIES CORP Mendonca Rogerio President, Equipment Group S $297.05 2,910 $864.4K 7,977
2026-08-24 2026-08-19 GLBE $7.04B ▼ SELL Global-E Online Ltd. Tamari Shahar Dir, COO S $41.63 24,999 $1.04M 3,856,689
2026-08-24 2026-08-20 VSAT $10.38B ▼ SELL VIASAT INC Chase Garrett L. SVP, Chief Financial Officer S $75.35 2,040 $153.7K 26,239
2026-08-24 2026-08-20 VSAT $10.38B ▼ SELL VIASAT INC Chase Garrett L. SVP, Chief Financial Officer S $74.45 1,960 $145.9K 28,279
2026-08-24 2026-08-20 AVAH $2.51B ▼ SELL Aveanna Healthcare Holdings, Inc. Reisz Edwin C. Chief Administrative Officer S $11.50 50,000 $575.0K 1,397,897
2026-08-24 2026-08-21 KARO $1.96B ▼ SELL Karooooo Ltd. Calisto Isaias Jose Dir, CEO Executive Chairman, 10% S $63.50 6,202 $393.8K 17,640,700
2026-08-24 2026-08-06 PAX ▼ SELL Patria Investments Ltd D'Ippolito Marco Nicola CEO of Global Private Markets S $11.29 7,004 $79.1K 443,178
2026-08-24 2026-08-03 PAX ▲ BUY Patria Investments Ltd D'Ippolito Marco Nicola CEO of Global Private Markets A $0.00 7,004 $0 450,182
2026-08-24 2026-04-14 PAX ▼ SELL Patria Investments Ltd D'Ippolito Marco Nicola CEO of Global Private Markets S $11.56 7,500 $86.7K 443,178
2026-08-24 2026-08-20 ITRI $4.28B ▼ SELL ITRON, INC. Marcolini John F. SVP, Networked Solutions S $97.83 275 $26.9K 13,014
2026-08-24 2026-08-19 PG $334.23B ▼ SELL PROCTER & GAMBLE Co Aguilar Moses Victor Javier Chf Rsch, Dev & Innov Officer S $143.79 3,053 $439.0K 49,511
2026-08-24 2026-08-24 DFH ▲ BUY Dream Finders Homes, Inc. Sturm Len Dir P $14.75 250 $3.7K 28,228
2026-08-24 2026-08-21 DFH ▲ BUY Dream Finders Homes, Inc. Sturm Len Dir P $14.81 250 $3.7K 27,978
2026-08-24 2026-08-19 HLMN $1.67B ▼ SELL Hillman Solutions Corp. Parker Aaron Jerrod Chief People Offic. S $8.57 17,381 $149.0K 54,723
2026-08-24 2026-08-20 EXOD ▲ BUY Exodus Movement, Inc. MacKinlay Carol Dir A $0.00 12,414 $0 23,831
2026-08-24 2026-08-21 YQ $1.25B ▲ BUY 17 Education & Technology Group Inc. Liu Chang Dir, Chief Executive Officer, 10% P $2.46 846 $2.1K 75,849
2026-08-24 2026-08-20 YQ $1.25B ▲ BUY 17 Education & Technology Group Inc. Liu Chang Dir, Chief Executive Officer, 10% L $2.46 2,837 $7.0K 75,003
2026-08-24 2026-08-19 YQ $1.25B ▲ BUY 17 Education & Technology Group Inc. Liu Chang Dir, Chief Executive Officer, 10% L $2.26 572 $1.3K 72,166
2026-08-24 2026-08-17 YQ $1.25B ▲ BUY 17 Education & Technology Group Inc. Liu Chang Dir, Chief Executive Officer, 10% L $2.28 294 $670 71,594
2026-08-24 2026-08-14 YQ $1.25B ▲ BUY 17 Education & Technology Group Inc. Liu Chang Dir, Chief Executive Officer, 10% L $2.40 221 $529 71,300
2026-08-24 2026-08-21 SIG ▲ BUY SIGNET JEWELERS LTD Ptak Stash * See Remarks A $0.00 25 $0 23,968
2026-08-24 2026-08-20 SOFI $23.25B ▼ SELL SoFi Technologies, Inc. Keough Kelli EVP, GBUL, SIPS S $18.00 11,286 $203.2K 356,442
2026-08-24 2026-08-21 OPFI $617.39M ▲ BUY OppFi Inc. Schwartz Todd G. Dir, Chief Executive Officer, 10% P $7.07 3,550 $25.1K 591,283
2026-08-24 2026-08-21 CRCL ▼ SELL Circle Internet Group, Inc. Fox-Geen Jeremy Chief Financial Officer S $90.00 45,000 $4.05M 323,837
2026-08-24 2026-08-21 CRCL ▲ BUY Circle Internet Group, Inc. Fox-Geen Jeremy Chief Financial Officer M $10.11 45,000 $454.9K 368,837
2026-08-24 2026-08-21 SNDK $234.36B ▼ SELL Sandisk Corp Visoso Luis Felipe EVP & CFO F $1596.08 1,589 $2.54M 137,814
2026-08-24 2026-08-20 SNDK $234.36B ▼ SELL Sandisk Corp Visoso Luis Felipe EVP & CFO F $1600.62 25,655 $41.06M 139,403
2026-08-24 2026-08-20 SPIR ▼ SELL Spire Global, Inc. Oehme Johann Gabriel Chief Technology Officer S $14.09 2,989 $42.1K 215,107
2026-08-24 2026-08-20 SPIR ▼ SELL Spire Global, Inc. Pelez Perez Celia Chief Operating Officer S $14.09 4,484 $63.2K 258,632
2026-08-24 2026-08-20 SPIR ▼ SELL Spire Global, Inc. Condor Theresa Dir, Chief Executive Officer S $14.09 22,502 $317.1K 948,686
2026-08-24 2026-08-20 SPIR ▼ SELL Spire Global, Inc. Platzer Peter Dir, Executive Chairman S $14.09 5,100 $71.9K 1,473,468
2026-08-24 2026-08-21 CRDA CRDB ▼ SELL CRAWFORD & CO Bart Andrew John Executive Vice President S $13.13 3,932 $51.6K 89,700
2026-08-24 2026-08-20 CRDA CRDB ▼ SELL CRAWFORD & CO Bart Andrew John Executive Vice President S $12.96 975 $12.6K 93,632
2026-08-24 2026-08-21 SIG ▲ BUY SIGNET JEWELERS LTD Ciccolini Vincent Chief Accounting Officer A $0.00 21 $0 45,257
2026-08-24 2026-08-21 DFDV $121.82M ▲ BUY DeFi Development Corp. White Parker 10% P $3.88 5,000 $19.4K 279,944
2026-08-24 2026-08-21 DFDV $121.82M ▲ BUY DeFi Development Corp. White Parker 10% P $3.93 5,069 $19.9K 274,944
2026-08-24 2026-08-21 ADP $111.11B ▼ SELL AUTOMATIC DATA PROCESSING INC Michaud Brian L. Executive VP S $279.70 120 $33.6K 18,442
2026-08-24 2026-08-21 DRVN $2.17B ▼ SELL Driven Brands Holdings Inc. O'Melia Scott L. Chief Legal Officer F $13.17 28,892 $380.5K 346,523
2026-08-24 2026-08-20 ITRI $4.28B ▼ SELL ITRON, INC. Patrick Justin K SVP, Device Solutions S $97.83 212 $20.7K 32,497
2026-08-24 2026-08-21 STLN $663.74M ▼ SELL Starling Oncology, Inc. Hively Brad Dir S $6.51 298,853 $1.95M 411,976
2026-08-24 2026-08-21 AGM ▼ SELL FEDERAL AGRICULTURAL MORTGAGE CORP Wilcher LaJuana S Dir G $0.00 225 $0 3,342
2026-08-24 2026-08-20 BCAL ▲ BUY California BanCorp \ CA Cullen Kevin J. Dir A $0.00 1,025 $0 17,704
2026-08-24 2026-08-20 BCAL ▲ BUY California BanCorp \ CA Armanino Andrew J. Dir A $0.00 1,025 $0 17,704
2026-08-24 2026-08-20 BCAL ▲ BUY California BanCorp \ CA Cortese Stephen A. Dir A $0.00 1,025 $0 354,848
2026-08-24 2026-08-20 DASH ▼ SELL DoorDash, Inc. Sherringham Tia GENERAL COUNSEL AND SECRETARY S $220.62 7,689 $1.70M 120,527
2026-08-24 2026-08-20 DASH ▼ SELL DoorDash, Inc. Inukonda Ravi CHIEF FINANCIAL OFFICER S $220.62 19,505 $4.30M 232,938
2026-08-24 2026-08-20 DASH ▼ SELL DoorDash, Inc. Yandell Keith CHIEF BUSINESS OFFICER S $220.62 7,962 $1.76M 122,872
2026-08-24 2026-08-21 DASH ▼ SELL DoorDash, Inc. Tang Stanley Dir S $225.16 72,367 $16.29M 10,361
2026-08-24 2026-08-21 DASH ▲ BUY DoorDash, Inc. Tang Stanley Dir J $0.00 72,367 $0 82,728
2026-08-24 2026-08-21 DASH ▼ SELL DoorDash, Inc. Tang Stanley Dir S $225.00 9,999 $2.25M 35,887
2026-08-24 2026-08-21 DASH ▲ BUY DoorDash, Inc. Tang Stanley Dir J $0.00 7,828 $0 45,886
2026-08-24 2026-08-20 DASH ▼ SELL DoorDash, Inc. Tang Stanley Dir S $220.62 2,160 $476.5K 38,058
2026-08-24 2026-08-20 DASH ▼ SELL DoorDash, Inc. Adarkar Prabir PRESIDENT AND COO S $220.62 17,126 $3.78M 941,950
2026-08-24 2026-08-20 DASH ▼ SELL DoorDash, Inc. Fang Andy Dir S $220.62 1,591 $351.0K 42,598
2026-08-24 2026-08-21 ROOT ▼ SELL Root, Inc. Binkley Megan Chief Financial Officer G $0.00 1,523 $0 112,317
2026-08-24 2026-08-21 ROOT ▼ SELL Root, Inc. Forish Ryan Chief Accounting Officer F $55.79 88 $4.9K 24,228
2026-08-24 2026-08-21 FLXS $333.48M ▼ SELL FLEXSTEEL INDUSTRIES INC Crimmins David Edward Chief Growth Officer S $80.91 250 $20.2K 30,194